sensor_id;sensor_type;location;lat;lon;timestamp;temperature;humidity
44170;DHT22;29836;52.286;9.576;2023-07-30T00:01:11;16.70;99.90
44170;DHT22;29836;52.286;9.576;2023-07-30T00:03:37;16.70;99.90
44170;DHT22;29836;52.286;9.576;2023-07-30T00:06:03;16.70;99.90
44170;DHT22;29836;52.286;9.576;2023-07-30T00:08:28;16.60;99.90
44170;DHT22;29836;52.286;9.576;2023-07-30T00:10:56;16.60;99.90
44170;DHT22;29836;52.286;9.576;2023-07-30T00:13:23;16.60;99.90
44170;DHT22;29836;52.286;9.576;2023-07-30T00:15:48;16.70;99.90
44170;DHT22;29836;52.286;9.576;2023-07-30T00:18:15;16.70;99.90
44170;DHT22;29836;52.286;9.576;2023-07-30T00:20:40;16.60;99.90
44170;DHT22;29836;52.286;9.576;2023-07-30T00:23:06;16.70;99.90
44170;DHT22;29836;52.286;9.576;2023-07-30T00:25:32;16.70;99.90
44170;DHT22;29836;52.286;9.576;2023-07-30T00:27:57;16.70;99.90
44170;DHT22;29836;52.286;9.576;2023-07-30T00:30:23;16.70;99.90
44170;DHT22;29836;52.286;9.576;2023-07-30T00:32:48;16.60;99.90
44170;DHT22;29836;52.286;9.576;2023-07-30T00:35:14;16.70;99.90
44170;DHT22;29836;52.286;9.576;2023-07-30T00:37:40;16.70;99.90
44170;DHT22;29836;52.286;9.576;2023-07-30T00:40:06;16.60;99.90
44170;DHT22;29836;52.286;9.576;2023-07-30T00:42:32;16.70;99.90
44170;DHT22;29836;52.286;9.576;2023-07-30T00:44:57;16.60;99.90
44170;DHT22;29836;52.286;9.576;2023-07-30T00:47:23;16.60;99.90
44170;DHT22;29836;52.286;9.576;2023-07-30T00:49:49;16.60;99.90
44170;DHT22;29836;52.286;9.576;2023-07-30T00:52:20;16.60;99.90
44170;DHT22;29836;52.286;9.576;2023-07-30T00:54:47;16.60;99.90
44170;DHT22;29836;52.286;9.576;2023-07-30T00:57:14;16.60;99.90
44170;DHT22;29836;52.286;9.576;2023-07-30T00:59:40;16.60;99.90
44170;DHT22;29836;52.286;9.576;2023-07-30T01:02:05;16.60;99.90
44170;DHT22;29836;52.286;9.576;2023-07-30T01:04:31;16.60;99.90
44170;DHT22;29836;52.286;9.576;2023-07-30T01:06:57;16.60;99.90
44170;DHT22;29836;52.286;9.576;2023-07-30T01:09:23;16.60;99.90
44170;DHT22;29836;52.286;9.576;2023-07-30T01:11:50;16.50;99.90
44170;DHT22;29836;52.286;9.576;2023-07-30T01:14:16;16.50;99.90
44170;DHT22;29836;52.286;9.576;2023-07-30T01:16:44;16.50;99.90
44170;DHT22;29836;52.286;9.576;2023-07-30T01:19:10;16.40;99.90
44170;DHT22;29836;52.286;9.576;2023-07-30T01:21:36;16.50;99.90
44170;DHT22;29836;52.286;9.576;2023-07-30T01:24:01;16.40;99.90
44170;DHT22;29836;52.286;9.576;2023-07-30T01:26:39;16.40;99.90
44170;DHT22;29836;52.286;9.576;2023-07-30T01:29:11;16.40;99.90
44170;DHT22;29836;52.286;9.576;2023-07-30T01:31:40;16.40;99.90
44170;DHT22;29836;52.286;9.576;2023-07-30T01:34:07;16.40;99.90
44170;DHT22;29836;52.286;9.576;2023-07-30T01:36:35;16.40;99.90
44170;DHT22;29836;52.286;9.576;2023-07-30T01:39:01;16.30;99.90
44170;DHT22;29836;52.286;9.576;2023-07-30T01:41:27;16.30;99.90
44170;DHT22;29836;52.286;9.576;2023-07-30T01:43:53;16.30;99.90
44170;DHT22;29836;52.286;9.576;2023-07-30T01:46:19;16.20;99.90
44170;DHT22;29836;52.286;9.576;2023-07-30T01:48:45;16.10;99.90
44170;DHT22;29836;52.286;9.576;2023-07-30T01:51:10;16.20;99.90
44170;DHT22;29836;52.286;9.576;2023-07-30T01:53:36;16.10;99.90
44170;DHT22;29836;52.286;9.576;2023-07-30T01:56:01;16.10;99.90
44170;DHT22;29836;52.286;9.576;2023-07-30T01:58:27;16.00;99.90
44170;DHT22;29836;52.286;9.576;2023-07-30T02:00:52;16.00;99.90
44170;DHT22;29836;52.286;9.576;2023-07-30T02:03:18;15.90;99.90
44170;DHT22;29836;52.286;9.576;2023-07-30T02:05:43;15.90;99.90
44170;DHT22;29836;52.286;9.576;2023-07-30T02:08:09;15.80;99.90
44170;DHT22;29836;52.286;9.576;2023-07-30T02:10:34;15.80;99.90
44170;DHT22;29836;52.286;9.576;2023-07-30T02:13:00;15.80;99.90
44170;DHT22;29836;52.286;9.576;2023-07-30T02:15:25;15.70;99.90
44170;DHT22;29836;52.286;9.576;2023-07-30T02:17:51;15.70;99.90
44170;DHT22;29836;52.286;9.576;2023-07-30T02:20:16;15.70;99.90
44170;DHT22;29836;52.286;9.576;2023-07-30T02:22:42;15.70;99.90
44170;DHT22;29836;52.286;9.576;2023-07-30T02:25:08;15.70;99.90
44170;DHT22;29836;52.286;9.576;2023-07-30T02:27:33;15.70;99.90
44170;DHT22;29836;52.286;9.576;2023-07-30T02:29:59;15.70;99.90
44170;DHT22;29836;52.286;9.576;2023-07-30T02:32:24;15.60;99.90
44170;DHT22;29836;52.286;9.576;2023-07-30T02:34:50;15.60;99.90
44170;DHT22;29836;52.286;9.576;2023-07-30T02:37:15;15.60;99.90
44170;DHT22;29836;52.286;9.576;2023-07-30T02:39:41;15.60;99.90
44170;DHT22;29836;52.286;9.576;2023-07-30T02:42:06;15.60;99.90
44170;DHT22;29836;52.286;9.576;2023-07-30T02:44:32;15.50;99.90
44170;DHT22;29836;52.286;9.576;2023-07-30T02:46:57;15.50;99.90
44170;DHT22;29836;52.286;9.576;2023-07-30T02:49:23;15.50;99.90
44170;DHT22;29836;52.286;9.576;2023-07-30T02:51:48;15.50;99.90
44170;DHT22;29836;52.286;9.576;2023-07-30T02:54:14;15.50;99.90
44170;DHT22;29836;52.286;9.576;2023-07-30T02:56:46;15.40;99.90
44170;DHT22;29836;52.286;9.576;2023-07-30T02:59:11;15.40;99.90
44170;DHT22;29836;52.286;9.576;2023-07-30T03:01:37;15.40;99.90
44170;DHT22;29836;52.286;9.576;2023-07-30T03:04:04;15.30;99.90
44170;DHT22;29836;52.286;9.576;2023-07-30T03:06:30;15.30;99.90
44170;DHT22;29836;52.286;9.576;2023-07-30T03:08:55;15.30;99.90
44170;DHT22;29836;52.286;9.576;2023-07-30T03:11:22;15.20;99.90
44170;DHT22;29836;52.286;9.576;2023-07-30T03:13:47;15.20;99.90
44170;DHT22;29836;52.286;9.576;2023-07-30T03:16:13;15.20;99.90
44170;DHT22;29836;52.286;9.576;2023-07-30T03:18:38;15.20;99.90
44170;DHT22;29836;52.286;9.576;2023-07-30T03:21:04;15.20;99.90
44170;DHT22;29836;52.286;9.576;2023-07-30T03:23:30;15.20;99.90
44170;DHT22;29836;52.286;9.576;2023-07-30T03:25:55;15.20;99.90
44170;DHT22;29836;52.286;9.576;2023-07-30T03:28:21;15.20;99.90
44170;DHT22;29836;52.286;9.576;2023-07-30T03:30:46;15.20;99.90
44170;DHT22;29836;52.286;9.576;2023-07-30T03:33:12;15.10;99.90
44170;DHT22;29836;52.286;9.576;2023-07-30T03:35:37;15.10;99.90
44170;DHT22;29836;52.286;9.576;2023-07-30T03:38:03;15.10;99.90
44170;DHT22;29836;52.286;9.576;2023-07-30T03:40:29;15.10;99.90
44170;DHT22;29836;52.286;9.576;2023-07-30T03:42:54;15.10;99.90
44170;DHT22;29836;52.286;9.576;2023-07-30T03:45:20;15.10;99.90
44170;DHT22;29836;52.286;9.576;2023-07-30T03:47:45;15.10;99.90
44170;DHT22;29836;52.286;9.576;2023-07-30T03:50:11;15.10;99.90
44170;DHT22;29836;52.286;9.576;2023-07-30T03:52:36;15.20;99.90
44170;DHT22;29836;52.286;9.576;2023-07-30T03:55:02;15.20;99.90
44170;DHT22;29836;52.286;9.576;2023-07-30T03:57:27;15.20;99.90
44170;DHT22;29836;52.286;9.576;2023-07-30T03:59:53;15.30;99.90
44170;DHT22;29836;52.286;9.576;2023-07-30T04:02:19;15.30;99.90
44170;DHT22;29836;52.286;9.576;2023-07-30T04:04:44;15.30;99.90
44170;DHT22;29836;52.286;9.576;2023-07-30T04:07:11;15.30;99.90
44170;DHT22;29836;52.286;9.576;2023-07-30T04:09:37;15.30;99.90
44170;DHT22;29836;52.286;9.576;2023-07-30T04:12:02;15.30;99.90
44170;DHT22;29836;52.286;9.576;2023-07-30T04:14:28;15.40;99.90
44170;DHT22;29836;52.286;9.576;2023-07-30T04:16:53;15.40;99.90
44170;DHT22;29836;52.286;9.576;2023-07-30T04:19:19;15.40;99.90
44170;DHT22;29836;52.286;9.576;2023-07-30T04:21:45;15.40;99.90
44170;DHT22;29836;52.286;9.576;2023-07-30T04:24:10;15.50;99.90
44170;DHT22;29836;52.286;9.576;2023-07-30T04:26:36;15.50;99.90
44170;DHT22;29836;52.286;9.576;2023-07-30T04:29:01;15.50;99.90
44170;DHT22;29836;52.286;9.576;2023-07-30T04:31:27;15.60;99.90
44170;DHT22;29836;52.286;9.576;2023-07-30T04:33:52;15.60;99.90
44170;DHT22;29836;52.286;9.576;2023-07-30T04:36:18;15.60;99.90
44170;DHT22;29836;52.286;9.576;2023-07-30T04:38:43;15.60;99.90
44170;DHT22;29836;52.286;9.576;2023-07-30T04:41:09;15.60;99.90
44170;DHT22;29836;52.286;9.576;2023-07-30T04:43:34;15.70;99.90
44170;DHT22;29836;52.286;9.576;2023-07-30T04:46:00;15.70;99.90
44170;DHT22;29836;52.286;9.576;2023-07-30T04:48:25;15.70;99.90
44170;DHT22;29836;52.286;9.576;2023-07-30T04:50:51;15.80;99.90
44170;DHT22;29836;52.286;9.576;2023-07-30T04:53:16;15.80;99.90
44170;DHT22;29836;52.286;9.576;2023-07-30T04:55:43;15.80;99.90
44170;DHT22;29836;52.286;9.576;2023-07-30T04:58:09;15.80;99.90
44170;DHT22;29836;52.286;9.576;2023-07-30T05:00:35;15.90;99.90
44170;DHT22;29836;52.286;9.576;2023-07-30T05:03:00;15.90;99.90
44170;DHT22;29836;52.286;9.576;2023-07-30T05:05:26;15.90;99.90
44170;DHT22;29836;52.286;9.576;2023-07-30T05:07:51;15.90;99.90
44170;DHT22;29836;52.286;9.576;2023-07-30T05:10:17;15.90;99.90
44170;DHT22;29836;52.286;9.576;2023-07-30T05:12:42;16.00;99.90
44170;DHT22;29836;52.286;9.576;2023-07-30T05:15:08;16.00;99.90
44170;DHT22;29836;52.286;9.576;2023-07-30T05:17:34;16.00;99.90
44170;DHT22;29836;52.286;9.576;2023-07-30T05:19:59;16.00;99.90
44170;DHT22;29836;52.286;9.576;2023-07-30T05:22:25;16.00;99.90
44170;DHT22;29836;52.286;9.576;2023-07-30T05:24:50;16.00;99.90
44170;DHT22;29836;52.286;9.576;2023-07-30T05:27:16;16.00;99.90
44170;DHT22;29836;52.286;9.576;2023-07-30T05:29:42;16.00;99.90
44170;DHT22;29836;52.286;9.576;2023-07-30T05:32:08;16.00;99.90
44170;DHT22;29836;52.286;9.576;2023-07-30T05:34:33;16.10;99.90
44170;DHT22;29836;52.286;9.576;2023-07-30T05:36:59;16.20;99.90
44170;DHT22;29836;52.286;9.576;2023-07-30T05:39:24;16.20;99.90
44170;DHT22;29836;52.286;9.576;2023-07-30T05:41:51;16.30;99.90
44170;DHT22;29836;52.286;9.576;2023-07-30T05:44:17;16.30;99.90
44170;DHT22;29836;52.286;9.576;2023-07-30T05:46:42;16.40;99.90
44170;DHT22;29836;52.286;9.576;2023-07-30T05:49:08;16.40;99.90
44170;DHT22;29836;52.286;9.576;2023-07-30T05:51:34;16.40;99.90
44170;DHT22;29836;52.286;9.576;2023-07-30T05:53:59;16.50;99.90
44170;DHT22;29836;52.286;9.576;2023-07-30T05:56:25;16.50;99.90
44170;DHT22;29836;52.286;9.576;2023-07-30T05:58:51;16.50;99.90
44170;DHT22;29836;52.286;9.576;2023-07-30T06:01:16;16.60;99.90
44170;DHT22;29836;52.286;9.576;2023-07-30T06:03:42;16.60;99.90
44170;DHT22;29836;52.286;9.576;2023-07-30T06:06:08;16.60;99.90
44170;DHT22;29836;52.286;9.576;2023-07-30T06:08:33;16.60;99.90
44170;DHT22;29836;52.286;9.576;2023-07-30T06:11:08;16.60;99.90
44170;DHT22;29836;52.286;9.576;2023-07-30T06:13:33;16.70;99.90
44170;DHT22;29836;52.286;9.576;2023-07-30T06:15:59;16.70;99.90
44170;DHT22;29836;52.286;9.576;2023-07-30T06:18:25;16.70;99.90
44170;DHT22;29836;52.286;9.576;2023-07-30T06:20:50;16.70;99.90
44170;DHT22;29836;52.286;9.576;2023-07-30T06:23:16;16.70;99.90
44170;DHT22;29836;52.286;9.576;2023-07-30T06:25:41;16.70;99.90
44170;DHT22;29836;52.286;9.576;2023-07-30T06:28:07;16.80;99.90
44170;DHT22;29836;52.286;9.576;2023-07-30T06:30:32;16.80;99.90
44170;DHT22;29836;52.286;9.576;2023-07-30T06:32:58;16.90;99.90
44170;DHT22;29836;52.286;9.576;2023-07-30T06:35:23;16.90;99.90
44170;DHT22;29836;52.286;9.576;2023-07-30T06:37:50;17.00;99.90
44170;DHT22;29836;52.286;9.576;2023-07-30T06:40:16;17.00;99.90
44170;DHT22;29836;52.286;9.576;2023-07-30T06:42:41;17.00;99.90
44170;DHT22;29836;52.286;9.576;2023-07-30T06:45:08;17.10;99.90
44170;DHT22;29836;52.286;9.576;2023-07-30T06:47:33;17.10;99.90
44170;DHT22;29836;52.286;9.576;2023-07-30T06:49:59;17.20;99.90
44170;DHT22;29836;52.286;9.576;2023-07-30T06:52:24;17.20;99.90
44170;DHT22;29836;52.286;9.576;2023-07-30T06:54:50;17.30;99.90
44170;DHT22;29836;52.286;9.576;2023-07-30T06:57:16;17.30;99.90
44170;DHT22;29836;52.286;9.576;2023-07-30T06:59:41;17.40;99.90
44170;DHT22;29836;52.286;9.576;2023-07-30T07:02:07;17.50;99.90
44170;DHT22;29836;52.286;9.576;2023-07-30T07:04:33;17.60;99.90
44170;DHT22;29836;52.286;9.576;2023-07-30T07:06:58;17.70;99.90
44170;DHT22;29836;52.286;9.576;2023-07-30T07:09:24;17.90;99.90
44170;DHT22;29836;52.286;9.576;2023-07-30T07:11:49;18.00;99.90
44170;DHT22;29836;52.286;9.576;2023-07-30T07:14:15;18.00;99.90
44170;DHT22;29836;52.286;9.576;2023-07-30T07:16:40;18.00;99.90
44170;DHT22;29836;52.286;9.576;2023-07-30T07:19:06;18.10;99.90
44170;DHT22;29836;52.286;9.576;2023-07-30T07:21:31;18.10;99.90
44170;DHT22;29836;52.286;9.576;2023-07-30T07:23:57;18.10;99.90
44170;DHT22;29836;52.286;9.576;2023-07-30T07:26:23;18.10;99.90
44170;DHT22;29836;52.286;9.576;2023-07-30T07:28:48;18.20;99.90
44170;DHT22;29836;52.286;9.576;2023-07-30T07:31:14;18.20;99.90
44170;DHT22;29836;52.286;9.576;2023-07-30T07:33:40;18.20;99.90
44170;DHT22;29836;52.286;9.576;2023-07-30T07:36:06;18.10;99.90
44170;DHT22;29836;52.286;9.576;2023-07-30T07:38:33;18.10;99.90
44170;DHT22;29836;52.286;9.576;2023-07-30T07:40:59;18.10;99.90
44170;DHT22;29836;52.286;9.576;2023-07-30T07:43:25;18.20;99.90
44170;DHT22;29836;52.286;9.576;2023-07-30T07:45:51;18.30;99.90
44170;DHT22;29836;52.286;9.576;2023-07-30T07:48:17;18.40;99.90
44170;DHT22;29836;52.286;9.576;2023-07-30T07:50:42;18.50;99.90
44170;DHT22;29836;52.286;9.576;2023-07-30T07:53:08;18.50;99.90
44170;DHT22;29836;52.286;9.576;2023-07-30T07:55:34;18.60;99.90
44170;DHT22;29836;52.286;9.576;2023-07-30T07:57:59;18.60;99.90
44170;DHT22;29836;52.286;9.576;2023-07-30T08:00:25;18.70;99.90
44170;DHT22;29836;52.286;9.576;2023-07-30T08:02:50;18.70;99.90
44170;DHT22;29836;52.286;9.576;2023-07-30T08:05:16;18.90;99.90
44170;DHT22;29836;52.286;9.576;2023-07-30T08:07:44;19.00;99.90
44170;DHT22;29836;52.286;9.576;2023-07-30T08:10:10;19.10;99.90
44170;DHT22;29836;52.286;9.576;2023-07-30T08:12:36;19.20;99.90
44170;DHT22;29836;52.286;9.576;2023-07-30T08:15:02;19.20;99.90
44170;DHT22;29836;52.286;9.576;2023-07-30T08:17:27;19.30;99.90
44170;DHT22;29836;52.286;9.576;2023-07-30T08:19:53;19.30;99.90
44170;DHT22;29836;52.286;9.576;2023-07-30T08:22:18;19.40;99.90
44170;DHT22;29836;52.286;9.576;2023-07-30T08:24:44;19.60;99.90
44170;DHT22;29836;52.286;9.576;2023-07-30T08:27:09;19.60;99.90
44170;DHT22;29836;52.286;9.576;2023-07-30T08:29:35;19.60;99.90
44170;DHT22;29836;52.286;9.576;2023-07-30T08:32:00;19.70;99.90
44170;DHT22;29836;52.286;9.576;2023-07-30T08:34:26;19.70;99.90
44170;DHT22;29836;52.286;9.576;2023-07-30T08:36:52;19.80;99.90
44170;DHT22;29836;52.286;9.576;2023-07-30T08:39:17;19.80;99.90
44170;DHT22;29836;52.286;9.576;2023-07-30T08:41:43;19.80;99.90
44170;DHT22;29836;52.286;9.576;2023-07-30T08:44:09;19.80;99.90
44170;DHT22;29836;52.286;9.576;2023-07-30T08:46:35;19.80;99.90
44170;DHT22;29836;52.286;9.576;2023-07-30T08:49:00;19.80;99.90
44170;DHT22;29836;52.286;9.576;2023-07-30T08:51:26;19.90;99.90
44170;DHT22;29836;52.286;9.576;2023-07-30T08:53:53;19.90;99.90
44170;DHT22;29836;52.286;9.576;2023-07-30T08:56:19;20.10;99.90
44170;DHT22;29836;52.286;9.576;2023-07-30T08:58:46;20.20;99.90
44170;DHT22;29836;52.286;9.576;2023-07-30T09:01:14;20.10;99.90
44170;DHT22;29836;52.286;9.576;2023-07-30T09:03:41;20.10;99.90
44170;DHT22;29836;52.286;9.576;2023-07-30T09:06:07;20.00;99.90
44170;DHT22;29836;52.286;9.576;2023-07-30T09:08:33;19.80;99.90
44170;DHT22;29836;52.286;9.576;2023-07-30T09:11:09;19.70;99.90
44170;DHT22;29836;52.286;9.576;2023-07-30T09:13:39;19.70;99.90
44170;DHT22;29836;52.286;9.576;2023-07-30T09:16:12;19.80;99.90
44170;DHT22;29836;52.286;9.576;2023-07-30T09:18:46;19.90;99.90
44170;DHT22;29836;52.286;9.576;2023-07-30T09:21:12;20.10;99.90
44170;DHT22;29836;52.286;9.576;2023-07-30T09:23:46;20.00;99.90
44170;DHT22;29836;52.286;9.576;2023-07-30T09:26:12;20.10;99.90
44170;DHT22;29836;52.286;9.576;2023-07-30T09:28:39;20.20;99.90
44170;DHT22;29836;52.286;9.576;2023-07-30T09:31:07;20.30;99.90
44170;DHT22;29836;52.286;9.576;2023-07-30T09:33:34;20.50;99.90
44170;DHT22;29836;52.286;9.576;2023-07-30T09:36:03;20.60;99.90
44170;DHT22;29836;52.286;9.576;2023-07-30T09:38:29;20.80;99.90
44170;DHT22;29836;52.286;9.576;2023-07-30T09:41:02;20.90;99.90
44170;DHT22;29836;52.286;9.576;2023-07-30T09:43:34;20.90;99.90
44170;DHT22;29836;52.286;9.576;2023-07-30T09:46:04;20.80;99.90
44170;DHT22;29836;52.286;9.576;2023-07-30T09:48:31;20.60;99.90
44170;DHT22;29836;52.286;9.576;2023-07-30T09:51:01;20.50;99.90
44170;DHT22;29836;52.286;9.576;2023-07-30T09:53:30;20.30;99.90
44170;DHT22;29836;52.286;9.576;2023-07-30T09:55:55;20.20;99.90
44170;DHT22;29836;52.286;9.576;2023-07-30T09:58:21;20.10;99.90
44170;DHT22;29836;52.286;9.576;2023-07-30T10:00:48;19.90;99.90
44170;DHT22;29836;52.286;9.576;2023-07-30T10:03:15;19.90;99.90
44170;DHT22;29836;52.286;9.576;2023-07-30T10:05:44;20.00;99.90
44170;DHT22;29836;52.286;9.576;2023-07-30T10:08:17;20.10;99.90
44170;DHT22;29836;52.286;9.576;2023-07-30T10:10:44;19.90;99.90
44170;DHT22;29836;52.286;9.576;2023-07-30T10:13:11;19.90;99.90
44170;DHT22;29836;52.286;9.576;2023-07-30T10:15:38;19.80;99.90
44170;DHT22;29836;52.286;9.576;2023-07-30T10:18:04;19.70;99.90
44170;DHT22;29836;52.286;9.576;2023-07-30T10:20:30;19.60;99.90
44170;DHT22;29836;52.286;9.576;2023-07-30T10:22:58;19.70;99.90
44170;DHT22;29836;52.286;9.576;2023-07-30T10:25:30;19.70;99.90
44170;DHT22;29836;52.286;9.576;2023-07-30T10:28:06;19.60;99.90
44170;DHT22;29836;52.286;9.576;2023-07-30T10:30:32;19.50;99.90
44170;DHT22;29836;52.286;9.576;2023-07-30T10:33:03;19.30;99.90
44170;DHT22;29836;52.286;9.576;2023-07-30T10:38:35;19.00;99.90
44170;DHT22;29836;52.286;9.576;2023-07-30T10:41:12;18.90;99.90
44170;DHT22;29836;52.286;9.576;2023-07-30T10:43:47;19.00;99.90
44170;DHT22;29836;52.286;9.576;2023-07-30T10:46:13;19.10;99.90
44170;DHT22;29836;52.286;9.576;2023-07-30T10:48:41;19.10;99.90
44170;DHT22;29836;52.286;9.576;2023-07-30T10:51:11;19.10;99.90
44170;DHT22;29836;52.286;9.576;2023-07-30T10:53:36;19.30;99.90
44170;DHT22;29836;52.286;9.576;2023-07-30T10:56:06;19.60;99.90
44170;DHT22;29836;52.286;9.576;2023-07-30T10:58:33;19.80;99.90
44170;DHT22;29836;52.286;9.576;2023-07-30T11:01:02;19.80;99.90
44170;DHT22;29836;52.286;9.576;2023-07-30T11:03:28;19.70;99.90
44170;DHT22;29836;52.286;9.576;2023-07-30T11:05:54;19.90;99.90
44170;DHT22;29836;52.286;9.576;2023-07-30T11:10:59;19.80;99.90
44170;DHT22;29836;52.286;9.576;2023-07-30T11:13:26;19.80;99.90
44170;DHT22;29836;52.286;9.576;2023-07-30T11:15:51;19.60;99.90
44170;DHT22;29836;52.286;9.576;2023-07-30T11:18:17;19.50;99.90
44170;DHT22;29836;52.286;9.576;2023-07-30T11:20:42;19.50;99.90
44170;DHT22;29836;52.286;9.576;2023-07-30T11:23:21;19.40;99.90
44170;DHT22;29836;52.286;9.576;2023-07-30T11:25:50;19.30;99.90
44170;DHT22;29836;52.286;9.576;2023-07-30T11:28:36;19.30;99.90
44170;DHT22;29836;52.286;9.576;2023-07-30T11:31:14;19.40;99.90
44170;DHT22;29836;52.286;9.576;2023-07-30T11:33:43;19.50;99.90
44170;DHT22;29836;52.286;9.576;2023-07-30T11:36:12;19.50;99.90
44170;DHT22;29836;52.286;9.576;2023-07-30T11:38:39;19.40;99.90
44170;DHT22;29836;52.286;9.576;2023-07-30T11:41:06;19.50;99.90
44170;DHT22;29836;52.286;9.576;2023-07-30T11:43:38;19.70;99.90
44170;DHT22;29836;52.286;9.576;2023-07-30T11:48:38;20.20;99.90
44170;DHT22;29836;52.286;9.576;2023-07-30T11:51:03;20.30;99.90
44170;DHT22;29836;52.286;9.576;2023-07-30T11:53:50;20.60;99.90
44170;DHT22;29836;52.286;9.576;2023-07-30T11:56:18;21.50;99.90
44170;DHT22;29836;52.286;9.576;2023-07-30T11:58:45;22.20;99.90
44170;DHT22;29836;52.286;9.576;2023-07-30T12:01:12;22.50;99.70
44170;DHT22;29836;52.286;9.576;2023-07-30T12:03:38;22.30;99.90
44170;DHT22;29836;52.286;9.576;2023-07-30T12:06:07;22.50;99.10
44170;DHT22;29836;52.286;9.576;2023-07-30T12:08:34;22.30;98.90
44170;DHT22;29836;52.286;9.576;2023-07-30T12:11:05;22.10;98.80
44170;DHT22;29836;52.286;9.576;2023-07-30T12:13:30;21.90;99.90
44170;DHT22;29836;52.286;9.576;2023-07-30T12:15:57;22.20;99.90
44170;DHT22;29836;52.286;9.576;2023-07-30T12:18:24;22.30;99.80
44170;DHT22;29836;52.286;9.576;2023-07-30T12:20:50;22.40;99.30
44170;DHT22;29836;52.286;9.576;2023-07-30T12:23:17;22.10;97.10
44170;DHT22;29836;52.286;9.576;2023-07-30T12:25:43;22.10;98.90
44170;DHT22;29836;52.286;9.576;2023-07-30T12:28:08;22.40;97.90
44170;DHT22;29836;52.286;9.576;2023-07-30T12:30:34;22.50;97.20
44170;DHT22;29836;52.286;9.576;2023-07-30T12:33:01;22.70;95.60
44170;DHT22;29836;52.286;9.576;2023-07-30T12:35:26;23.10;94.80
44170;DHT22;29836;52.286;9.576;2023-07-30T12:37:52;23.50;92.80
44170;DHT22;29836;52.286;9.576;2023-07-30T12:40:17;23.40;93.90
44170;DHT22;29836;52.286;9.576;2023-07-30T12:42:43;23.30;93.80
44170;DHT22;29836;52.286;9.576;2023-07-30T12:45:09;23.30;91.90
44170;DHT22;29836;52.286;9.576;2023-07-30T12:47:34;23.30;91.90
44170;DHT22;29836;52.286;9.576;2023-07-30T12:50:04;23.50;91.80
44170;DHT22;29836;52.286;9.576;2023-07-30T12:52:32;24.20;91.90
44170;DHT22;29836;52.286;9.576;2023-07-30T12:54:57;24.30;89.40
44170;DHT22;29836;52.286;9.576;2023-07-30T12:57:23;24.40;89.30
44170;DHT22;29836;52.286;9.576;2023-07-30T12:59:48;24.30;86.10
44170;DHT22;29836;52.286;9.576;2023-07-30T13:02:14;24.20;87.00
44170;DHT22;29836;52.286;9.576;2023-07-30T13:04:39;24.10;85.40
44170;DHT22;29836;52.286;9.576;2023-07-30T13:07:05;24.10;89.00
44170;DHT22;29836;52.286;9.576;2023-07-30T13:09:31;24.00;88.30
44170;DHT22;29836;52.286;9.576;2023-07-30T13:11:57;24.00;87.70
44170;DHT22;29836;52.286;9.576;2023-07-30T13:14:22;24.40;86.30
44170;DHT22;29836;52.286;9.576;2023-07-30T13:16:48;24.50;84.60
44170;DHT22;29836;52.286;9.576;2023-07-30T13:19:13;24.20;82.60
44170;DHT22;29836;52.286;9.576;2023-07-30T13:21:39;23.80;86.70
44170;DHT22;29836;52.286;9.576;2023-07-30T13:24:04;23.80;85.60
44170;DHT22;29836;52.286;9.576;2023-07-30T13:26:30;24.00;85.20
44170;DHT22;29836;52.286;9.576;2023-07-30T13:28:55;23.70;83.90
44170;DHT22;29836;52.286;9.576;2023-07-30T13:31:21;24.10;84.70
44170;DHT22;29836;52.286;9.576;2023-07-30T13:33:47;24.00;84.70
44170;DHT22;29836;52.286;9.576;2023-07-30T13:36:13;23.90;82.20
44170;DHT22;29836;52.286;9.576;2023-07-30T13:38:39;23.90;82.30
44170;DHT22;29836;52.286;9.576;2023-07-30T13:41:08;23.90;83.00
44170;DHT22;29836;52.286;9.576;2023-07-30T13:43:34;23.60;80.90
44170;DHT22;29836;52.286;9.576;2023-07-30T13:45:59;23.10;83.10
44170;DHT22;29836;52.286;9.576;2023-07-30T13:48:25;22.80;84.60
44170;DHT22;29836;52.286;9.576;2023-07-30T13:50:51;22.80;86.70
44170;DHT22;29836;52.286;9.576;2023-07-30T13:53:17;22.70;84.40
44170;DHT22;29836;52.286;9.576;2023-07-30T13:55:43;22.50;85.70
44170;DHT22;29836;52.286;9.576;2023-07-30T13:58:09;22.40;85.30
44170;DHT22;29836;52.286;9.576;2023-07-30T14:00:35;22.30;86.60
44170;DHT22;29836;52.286;9.576;2023-07-30T14:03:00;22.40;87.60
44170;DHT22;29836;52.286;9.576;2023-07-30T14:05:26;22.70;86.50
44170;DHT22;29836;52.286;9.576;2023-07-30T14:07:54;23.10;84.00
44170;DHT22;29836;52.286;9.576;2023-07-30T14:10:22;23.30;86.40
44170;DHT22;29836;52.286;9.576;2023-07-30T14:12:48;23.40;82.70
44170;DHT22;29836;52.286;9.576;2023-07-30T14:15:14;23.30;82.70
44170;DHT22;29836;52.286;9.576;2023-07-30T14:17:42;23.10;83.70
44170;DHT22;29836;52.286;9.576;2023-07-30T14:20:09;23.30;83.30
44170;DHT22;29836;52.286;9.576;2023-07-30T14:22:35;23.30;81.20
44170;DHT22;29836;52.286;9.576;2023-07-30T14:25:02;23.20;82.40
44170;DHT22;29836;52.286;9.576;2023-07-30T14:27:27;23.10;84.60
44170;DHT22;29836;52.286;9.576;2023-07-30T14:29:53;23.20;82.10
44170;DHT22;29836;52.286;9.576;2023-07-30T14:32:23;23.30;84.20
44170;DHT22;29836;52.286;9.576;2023-07-30T14:34:48;23.40;83.50
44170;DHT22;29836;52.286;9.576;2023-07-30T14:37:14;23.70;83.00
44170;DHT22;29836;52.286;9.576;2023-07-30T14:39:39;23.90;81.00
44170;DHT22;29836;52.286;9.576;2023-07-30T14:42:06;24.00;81.20
44170;DHT22;29836;52.286;9.576;2023-07-30T14:44:32;23.90;81.10
44170;DHT22;29836;52.286;9.576;2023-07-30T14:46:57;23.60;79.00
44170;DHT22;29836;52.286;9.576;2023-07-30T14:49:24;23.30;81.30
44170;DHT22;29836;52.286;9.576;2023-07-30T14:51:49;23.00;82.90
44170;DHT22;29836;52.286;9.576;2023-07-30T14:54:16;22.30;83.30
44170;DHT22;29836;52.286;9.576;2023-07-30T14:56:42;22.00;85.20
44170;DHT22;29836;52.286;9.576;2023-07-30T14:59:07;21.50;87.10
44170;DHT22;29836;52.286;9.576;2023-07-30T15:01:33;21.30;90.40
44170;DHT22;29836;52.286;9.576;2023-07-30T15:03:59;21.20;90.80
44170;DHT22;29836;52.286;9.576;2023-07-30T15:06:24;21.30;91.00
44170;DHT22;29836;52.286;9.576;2023-07-30T15:08:51;21.50;90.50
44170;DHT22;29836;52.286;9.576;2023-07-30T15:11:16;21.70;90.10
44170;DHT22;29836;52.286;9.576;2023-07-30T15:13:42;21.80;87.70
44170;DHT22;29836;52.286;9.576;2023-07-30T15:16:07;21.80;87.90
44170;DHT22;29836;52.286;9.576;2023-07-30T15:18:33;21.80;87.80
44170;DHT22;29836;52.286;9.576;2023-07-30T15:20:59;21.60;88.50
44170;DHT22;29836;52.286;9.576;2023-07-30T15:23:24;21.50;86.90
44170;DHT22;29836;52.286;9.576;2023-07-30T15:25:50;21.40;88.40
44170;DHT22;29836;52.286;9.576;2023-07-30T15:28:17;21.50;90.10
44170;DHT22;29836;52.286;9.576;2023-07-30T15:30:42;21.70;89.30
44170;DHT22;29836;52.286;9.576;2023-07-30T15:33:08;21.70;89.50